Crescent Springs, Kentucky
Current Conditions -  °F | °C
As of 7:33 AM on Sunday 21 Dec 2014 (Local Time) from KI69 Reporting Station
Overcast Overcast  
Wind Chill: 32°   Ceiling: 1600
Heat Index: 32°   Visibility: 10mi
Dew Point: 27°   Wind: 3mph
Humidity: 80%   Direction: 100°E
Pressure: 30.31"   Gusts: NA
Location:  39.0279°N, 84.5635°W
Report Text: KI69 211233Z AUTO 10003KT 10SM OVC016 00/M03 A3031 RMK AO1
Loading
Personal Weather Stations






























Interactive Weather Map New forecast layout! Learn more

10-Day Weather Forecast

Advertisements
Track Severe Weather on mobile